sensor_id;sensor_type;location;lat;lon;timestamp;P1;durP1;ratioP1;P2;durP2;ratioP2
18822;SDS011;9540;51.550;7.980;2023-05-10T00:01:00;28.60;;;12.13;;
18822;SDS011;9540;51.550;7.980;2023-05-10T00:03:29;31.58;;;11.98;;
18822;SDS011;9540;51.550;7.980;2023-05-10T00:05:56;36.63;;;11.52;;
18822;SDS011;9540;51.550;7.980;2023-05-10T00:08:24;28.50;;;8.90;;
18822;SDS011;9540;51.550;7.980;2023-05-10T00:10:52;29.58;;;8.70;;
18822;SDS011;9540;51.550;7.980;2023-05-10T00:13:21;27.08;;;8.82;;
18822;SDS011;9540;51.550;7.980;2023-05-10T00:15:48;24.98;;;8.82;;
18822;SDS011;9540;51.550;7.980;2023-05-10T00:18:15;28.65;;;8.30;;
18822;SDS011;9540;51.550;7.980;2023-05-10T00:20:44;26.35;;;8.60;;
18822;SDS011;9540;51.550;7.980;2023-05-10T00:23:11;25.33;;;8.93;;
18822;SDS011;9540;51.550;7.980;2023-05-10T00:25:39;26.83;;;8.80;;
18822;SDS011;9540;51.550;7.980;2023-05-10T00:28:06;30.73;;;8.88;;
18822;SDS011;9540;51.550;7.980;2023-05-10T00:30:33;48.30;;;11.10;;
18822;SDS011;9540;51.550;7.980;2023-05-10T00:33:00;39.03;;;11.10;;
18822;SDS011;9540;51.550;7.980;2023-05-10T00:35:28;33.38;;;9.68;;
18822;SDS011;9540;51.550;7.980;2023-05-10T00:37:57;29.58;;;8.18;;
18822;SDS011;9540;51.550;7.980;2023-05-10T00:40:24;30.10;;;8.18;;
18822;SDS011;9540;51.550;7.980;2023-05-10T00:42:51;25.50;;;7.22;;
18822;SDS011;9540;51.550;7.980;2023-05-10T00:45:18;22.27;;;6.32;;
18822;SDS011;9540;51.550;7.980;2023-05-10T00:47:46;15.30;;;5.30;;
18822;SDS011;9540;51.550;7.980;2023-05-10T00:50:13;16.33;;;4.70;;
18822;SDS011;9540;51.550;7.980;2023-05-10T00:52:41;15.13;;;4.85;;
18822;SDS011;9540;51.550;7.980;2023-05-10T00:55:10;10.90;;;4.82;;
18822;SDS011;9540;51.550;7.980;2023-05-10T00:57:38;15.10;;;5.63;;
18822;SDS011;9540;51.550;7.980;2023-05-10T01:00:06;15.02;;;5.65;;
18822;SDS011;9540;51.550;7.980;2023-05-10T01:02:35;12.73;;;5.45;;
18822;SDS011;9540;51.550;7.980;2023-05-10T01:05:02;13.13;;;5.05;;
18822;SDS011;9540;51.550;7.980;2023-05-10T01:07:30;14.82;;;5.47;;
18822;SDS011;9540;51.550;7.980;2023-05-10T01:09:57;11.55;;;5.53;;
18822;SDS011;9540;51.550;7.980;2023-05-10T01:12:26;9.13;;;5.28;;
18822;SDS011;9540;51.550;7.980;2023-05-10T01:14:54;12.57;;;6.47;;
18822;SDS011;9540;51.550;7.980;2023-05-10T01:17:22;8.98;;;4.93;;
18822;SDS011;9540;51.550;7.980;2023-05-10T01:19:50;10.32;;;5.10;;
18822;SDS011;9540;51.550;7.980;2023-05-10T01:22:33;11.95;;;5.57;;
18822;SDS011;9540;51.550;7.980;2023-05-10T01:31:22;11.43;;;5.53;;
18822;SDS011;9540;51.550;7.980;2023-05-10T01:34:02;11.25;;;4.95;;
18822;SDS011;9540;51.550;7.980;2023-05-10T01:36:35;7.40;;;4.30;;
18822;SDS011;9540;51.550;7.980;2023-05-10T01:39:09;10.95;;;4.93;;
18822;SDS011;9540;51.550;7.980;2023-05-10T01:41:44;15.88;;;5.55;;
18822;SDS011;9540;51.550;7.980;2023-05-10T01:44:20;11.57;;;5.63;;
18822;SDS011;9540;51.550;7.980;2023-05-10T01:46:56;7.90;;;5.07;;
18822;SDS011;9540;51.550;7.980;2023-05-10T01:49:30;14.68;;;6.45;;
18822;SDS011;9540;51.550;7.980;2023-05-10T01:52:03;15.00;;;6.53;;
18822;SDS011;9540;51.550;7.980;2023-05-10T01:54:35;15.90;;;7.10;;
18822;SDS011;9540;51.550;7.980;2023-05-10T01:57:05;16.52;;;7.95;;
18822;SDS011;9540;51.550;7.980;2023-05-10T01:59:37;20.63;;;8.02;;
18822;SDS011;9540;51.550;7.980;2023-05-10T02:02:06;20.27;;;8.57;;
18822;SDS011;9540;51.550;7.980;2023-05-10T02:04:38;17.92;;;8.27;;
18822;SDS011;9540;51.550;7.980;2023-05-10T02:07:07;21.13;;;8.95;;
18822;SDS011;9540;51.550;7.980;2023-05-10T02:09:35;19.65;;;8.00;;
18822;SDS011;9540;51.550;7.980;2023-05-10T02:12:04;23.60;;;9.45;;
18822;SDS011;9540;51.550;7.980;2023-05-10T02:14:36;29.27;;;10.43;;
18822;SDS011;9540;51.550;7.980;2023-05-10T02:17:05;26.38;;;10.43;;
18822;SDS011;9540;51.550;7.980;2023-05-10T02:19:34;39.72;;;12.73;;
18822;SDS011;9540;51.550;7.980;2023-05-10T02:22:06;34.20;;;12.88;;
18822;SDS011;9540;51.550;7.980;2023-05-10T02:24:35;27.15;;;11.27;;
18822;SDS011;9540;51.550;7.980;2023-05-10T02:27:03;41.53;;;13.18;;
18822;SDS011;9540;51.550;7.980;2023-05-10T02:29:31;52.72;;;14.50;;
18822;SDS011;9540;51.550;7.980;2023-05-10T02:31:59;50.33;;;13.82;;
18822;SDS011;9540;51.550;7.980;2023-05-10T02:34:27;50.90;;;15.40;;
18822;SDS011;9540;51.550;7.980;2023-05-10T02:36:57;46.58;;;15.43;;
18822;SDS011;9540;51.550;7.980;2023-05-10T02:39:25;51.15;;;16.35;;
18822;SDS011;9540;51.550;7.980;2023-05-10T02:41:54;56.38;;;16.50;;
18822;SDS011;9540;51.550;7.980;2023-05-10T02:44:23;55.97;;;16.05;;
18822;SDS011;9540;51.550;7.980;2023-05-10T02:46:53;48.40;;;14.18;;
18822;SDS011;9540;51.550;7.980;2023-05-10T02:49:22;63.63;;;16.67;;
18822;SDS011;9540;51.550;7.980;2023-05-10T02:51:50;58.45;;;16.40;;
18822;SDS011;9540;51.550;7.980;2023-05-10T02:54:24;57.22;;;16.35;;
18822;SDS011;9540;51.550;7.980;2023-05-10T02:56:57;61.97;;;16.35;;
18822;SDS011;9540;51.550;7.980;2023-05-10T02:59:26;63.97;;;17.20;;
18822;SDS011;9540;51.550;7.980;2023-05-10T03:01:53;63.47;;;16.77;;
18822;SDS011;9540;51.550;7.980;2023-05-10T03:04:21;52.78;;;14.93;;
18822;SDS011;9540;51.550;7.980;2023-05-10T03:06:48;50.95;;;14.45;;
18822;SDS011;9540;51.550;7.980;2023-05-10T03:09:15;55.05;;;14.40;;
18822;SDS011;9540;51.550;7.980;2023-05-10T03:11:59;46.95;;;14.80;;
18822;SDS011;9540;51.550;7.980;2023-05-10T03:14:37;50.35;;;14.30;;
18822;SDS011;9540;51.550;7.980;2023-05-10T03:17:16;44.95;;;15.35;;
18822;SDS011;9540;51.550;7.980;2023-05-10T03:19:51;54.70;;;16.40;;
18822;SDS011;9540;51.550;7.980;2023-05-10T03:22:21;32.65;;;10.52;;
18822;SDS011;9540;51.550;7.980;2023-05-10T03:24:51;31.67;;;10.00;;
18822;SDS011;9540;51.550;7.980;2023-05-10T03:27:24;21.98;;;7.20;;
18822;SDS011;9540;51.550;7.980;2023-05-10T03:29:54;25.40;;;8.13;;
18822;SDS011;9540;51.550;7.980;2023-05-10T03:32:23;23.00;;;7.32;;
18822;SDS011;9540;51.550;7.980;2023-05-10T03:34:52;19.50;;;7.30;;
18822;SDS011;9540;51.550;7.980;2023-05-10T03:37:19;17.00;;;6.43;;
18822;SDS011;9540;51.550;7.980;2023-05-10T03:39:46;17.85;;;5.90;;
18822;SDS011;9540;51.550;7.980;2023-05-10T03:42:13;10.20;;;4.30;;
18822;SDS011;9540;51.550;7.980;2023-05-10T03:44:44;9.57;;;4.45;;
18822;SDS011;9540;51.550;7.980;2023-05-10T03:47:11;10.63;;;4.22;;
18822;SDS011;9540;51.550;7.980;2023-05-10T03:49:38;8.20;;;3.42;;
18822;SDS011;9540;51.550;7.980;2023-05-10T03:52:05;8.13;;;3.53;;
18822;SDS011;9540;51.550;7.980;2023-05-10T03:54:32;6.60;;;3.90;;
18822;SDS011;9540;51.550;7.980;2023-05-10T03:56:59;10.57;;;3.65;;
18822;SDS011;9540;51.550;7.980;2023-05-10T03:59:28;6.32;;;3.38;;
18822;SDS011;9540;51.550;7.980;2023-05-10T04:01:56;7.25;;;3.25;;
18822;SDS011;9540;51.550;7.980;2023-05-10T04:04:23;6.50;;;3.50;;
18822;SDS011;9540;51.550;7.980;2023-05-10T04:06:50;7.50;;;3.03;;
18822;SDS011;9540;51.550;7.980;2023-05-10T04:09:18;13.60;;;5.10;;
18822;SDS011;9540;51.550;7.980;2023-05-10T04:11:45;16.83;;;5.97;;
18822;SDS011;9540;51.550;7.980;2023-05-10T04:14:12;14.38;;;5.32;;
18822;SDS011;9540;51.550;7.980;2023-05-10T04:16:39;12.20;;;4.95;;
18822;SDS011;9540;51.550;7.980;2023-05-10T04:19:07;13.00;;;4.15;;
18822;SDS011;9540;51.550;7.980;2023-05-10T04:21:34;15.32;;;4.85;;
18822;SDS011;9540;51.550;7.980;2023-05-10T04:24:03;15.90;;;4.85;;
18822;SDS011;9540;51.550;7.980;2023-05-10T04:26:31;14.65;;;6.00;;
18822;SDS011;9540;51.550;7.980;2023-05-10T04:28:58;12.25;;;5.53;;
18822;SDS011;9540;51.550;7.980;2023-05-10T04:31:25;21.10;;;6.85;;
18822;SDS011;9540;51.550;7.980;2023-05-10T04:33:53;21.27;;;6.25;;
18822;SDS011;9540;51.550;7.980;2023-05-10T04:36:24;18.45;;;6.78;;
18822;SDS011;9540;51.550;7.980;2023-05-10T04:38:51;18.40;;;6.55;;
18822;SDS011;9540;51.550;7.980;2023-05-10T04:41:18;25.95;;;7.50;;
18822;SDS011;9540;51.550;7.980;2023-05-10T04:43:45;23.63;;;7.22;;
18822;SDS011;9540;51.550;7.980;2023-05-10T04:46:14;22.85;;;6.43;;
18822;SDS011;9540;51.550;7.980;2023-05-10T04:48:41;14.50;;;5.55;;
18822;SDS011;9540;51.550;7.980;2023-05-10T04:51:08;20.50;;;6.68;;
18822;SDS011;9540;51.550;7.980;2023-05-10T04:53:37;18.95;;;6.18;;
18822;SDS011;9540;51.550;7.980;2023-05-10T04:56:04;14.55;;;5.60;;
18822;SDS011;9540;51.550;7.980;2023-05-10T04:58:32;12.45;;;4.45;;
18822;SDS011;9540;51.550;7.980;2023-05-10T05:01:04;11.77;;;4.70;;
18822;SDS011;9540;51.550;7.980;2023-05-10T05:03:32;17.13;;;4.75;;
18822;SDS011;9540;51.550;7.980;2023-05-10T05:06:00;9.05;;;4.20;;
18822;SDS011;9540;51.550;7.980;2023-05-10T05:08:27;14.57;;;5.28;;
18822;SDS011;9540;51.550;7.980;2023-05-10T05:10:58;13.40;;;5.00;;
18822;SDS011;9540;51.550;7.980;2023-05-10T05:13:26;17.38;;;5.93;;
18822;SDS011;9540;51.550;7.980;2023-05-10T05:15:53;13.93;;;5.82;;
18822;SDS011;9540;51.550;7.980;2023-05-10T05:18:20;21.95;;;7.13;;
18822;SDS011;9540;51.550;7.980;2023-05-10T05:20:47;15.68;;;6.07;;
18822;SDS011;9540;51.550;7.980;2023-05-10T05:23:14;19.95;;;7.07;;
18822;SDS011;9540;51.550;7.980;2023-05-10T05:25:41;23.23;;;7.88;;
18822;SDS011;9540;51.550;7.980;2023-05-10T05:28:10;20.35;;;7.10;;
18822;SDS011;9540;51.550;7.980;2023-05-10T05:30:37;15.13;;;6.38;;
18822;SDS011;9540;51.550;7.980;2023-05-10T05:33:05;16.33;;;6.07;;
18822;SDS011;9540;51.550;7.980;2023-05-10T05:35:32;22.05;;;7.10;;
18822;SDS011;9540;51.550;7.980;2023-05-10T05:37:59;29.85;;;9.32;;
18822;SDS011;9540;51.550;7.980;2023-05-10T05:40:26;25.85;;;9.10;;
18822;SDS011;9540;51.550;7.980;2023-05-10T05:42:53;27.17;;;9.52;;
18822;SDS011;9540;51.550;7.980;2023-05-10T05:45:21;32.92;;;11.27;;
18822;SDS011;9540;51.550;7.980;2023-05-10T05:47:48;26.58;;;10.68;;
18822;SDS011;9540;51.550;7.980;2023-05-10T05:50:16;34.50;;;11.63;;
18822;SDS011;9540;51.550;7.980;2023-05-10T05:52:43;39.67;;;13.65;;
18822;SDS011;9540;51.550;7.980;2023-05-10T05:55:10;64.10;;;17.30;;
18822;SDS011;9540;51.550;7.980;2023-05-10T05:57:37;48.63;;;16.85;;
18822;SDS011;9540;51.550;7.980;2023-05-10T06:00:05;57.35;;;18.38;;
18822;SDS011;9540;51.550;7.980;2023-05-10T06:02:35;73.32;;;19.17;;
18822;SDS011;9540;51.550;7.980;2023-05-10T06:05:02;62.17;;;16.33;;
18822;SDS011;9540;51.550;7.980;2023-05-10T06:07:29;82.65;;;23.17;;
18822;SDS011;9540;51.550;7.980;2023-05-10T06:09:56;76.68;;;18.58;;
18822;SDS011;9540;51.550;7.980;2023-05-10T06:12:24;65.55;;;20.73;;
18822;SDS011;9540;51.550;7.980;2023-05-10T06:14:51;79.53;;;22.75;;
18822;SDS011;9540;51.550;7.980;2023-05-10T06:17:18;84.07;;;24.27;;
18822;SDS011;9540;51.550;7.980;2023-05-10T06:19:48;72.43;;;22.75;;
18822;SDS011;9540;51.550;7.980;2023-05-10T06:22:15;66.50;;;20.23;;
18822;SDS011;9540;51.550;7.980;2023-05-10T06:24:42;67.78;;;20.48;;
18822;SDS011;9540;51.550;7.980;2023-05-10T06:27:10;71.65;;;23.00;;
18822;SDS011;9540;51.550;7.980;2023-05-10T06:29:37;65.72;;;21.40;;
18822;SDS011;9540;51.550;7.980;2023-05-10T06:32:05;91.32;;;22.88;;
18822;SDS011;9540;51.550;7.980;2023-05-10T06:34:32;73.78;;;23.52;;
18822;SDS011;9540;51.550;7.980;2023-05-10T06:37:00;92.97;;;26.73;;
18822;SDS011;9540;51.550;7.980;2023-05-10T06:39:28;96.28;;;26.75;;
18822;SDS011;9540;51.550;7.980;2023-05-10T06:41:55;91.30;;;25.10;;
18822;SDS011;9540;51.550;7.980;2023-05-10T06:44:22;127.85;;;31.55;;
18822;SDS011;9540;51.550;7.980;2023-05-10T06:46:49;93.20;;;28.48;;
18822;SDS011;9540;51.550;7.980;2023-05-10T06:49:18;97.25;;;29.80;;
18822;SDS011;9540;51.550;7.980;2023-05-10T06:51:45;95.25;;;30.58;;
18822;SDS011;9540;51.550;7.980;2023-05-10T06:54:14;120.80;;;34.10;;
18822;SDS011;9540;51.550;7.980;2023-05-10T06:56:41;117.28;;;30.88;;
18822;SDS011;9540;51.550;7.980;2023-05-10T06:59:08;115.75;;;31.40;;
18822;SDS011;9540;51.550;7.980;2023-05-10T07:01:35;125.75;;;33.28;;
18822;SDS011;9540;51.550;7.980;2023-05-10T07:04:02;105.55;;;29.08;;
18822;SDS011;9540;51.550;7.980;2023-05-10T07:06:30;105.72;;;28.83;;
18822;SDS011;9540;51.550;7.980;2023-05-10T07:08:57;88.82;;;29.98;;
18822;SDS011;9540;51.550;7.980;2023-05-10T07:11:25;114.85;;;31.52;;
18822;SDS011;9540;51.550;7.980;2023-05-10T07:13:52;109.25;;;30.27;;
18822;SDS011;9540;51.550;7.980;2023-05-10T07:16:19;108.60;;;30.65;;
18822;SDS011;9540;51.550;7.980;2023-05-10T07:18:47;98.40;;;30.40;;
18822;SDS011;9540;51.550;7.980;2023-05-10T07:21:15;107.75;;;31.10;;
18822;SDS011;9540;51.550;7.980;2023-05-10T07:23:42;99.80;;;30.35;;
18822;SDS011;9540;51.550;7.980;2023-05-10T07:26:09;116.28;;;30.55;;
18822;SDS011;9540;51.550;7.980;2023-05-10T07:28:38;109.05;;;30.73;;
18822;SDS011;9540;51.550;7.980;2023-05-10T07:31:05;91.78;;;29.73;;
18822;SDS011;9540;51.550;7.980;2023-05-10T07:33:32;93.78;;;30.98;;
18822;SDS011;9540;51.550;7.980;2023-05-10T07:35:59;100.95;;;28.98;;
18822;SDS011;9540;51.550;7.980;2023-05-10T07:38:27;90.32;;;28.20;;
18822;SDS011;9540;51.550;7.980;2023-05-10T07:40:54;82.95;;;30.13;;
18822;SDS011;9540;51.550;7.980;2023-05-10T07:43:21;94.63;;;29.98;;
18822;SDS011;9540;51.550;7.980;2023-05-10T07:45:49;76.80;;;28.92;;
18822;SDS011;9540;51.550;7.980;2023-05-10T07:48:16;64.70;;;27.08;;
18822;SDS011;9540;51.550;7.980;2023-05-10T07:50:43;80.95;;;28.08;;
18822;SDS011;9540;51.550;7.980;2023-05-10T07:53:10;78.95;;;28.75;;
18822;SDS011;9540;51.550;7.980;2023-05-10T07:55:37;77.05;;;28.55;;
18822;SDS011;9540;51.550;7.980;2023-05-10T07:58:04;72.47;;;28.52;;
18822;SDS011;9540;51.550;7.980;2023-05-10T08:00:32;87.05;;;28.80;;
18822;SDS011;9540;51.550;7.980;2023-05-10T08:03:01;75.13;;;27.48;;
18822;SDS011;9540;51.550;7.980;2023-05-10T08:05:29;71.25;;;25.30;;
18822;SDS011;9540;51.550;7.980;2023-05-10T08:07:56;78.40;;;28.55;;
18822;SDS011;9540;51.550;7.980;2023-05-10T08:10:24;72.18;;;27.95;;
18822;SDS011;9540;51.550;7.980;2023-05-10T08:12:51;80.43;;;29.17;;
18822;SDS011;9540;51.550;7.980;2023-05-10T08:15:19;85.07;;;30.98;;
18822;SDS011;9540;51.550;7.980;2023-05-10T08:17:46;92.50;;;32.35;;
18822;SDS011;9540;51.550;7.980;2023-05-10T08:20:14;79.32;;;34.03;;
18822;SDS011;9540;51.550;7.980;2023-05-10T08:22:44;90.70;;;34.88;;
18822;SDS011;9540;51.550;7.980;2023-05-10T08:25:11;91.43;;;35.28;;
18822;SDS011;9540;51.550;7.980;2023-05-10T08:27:38;82.72;;;34.10;;
18822;SDS011;9540;51.550;7.980;2023-05-10T08:30:06;78.75;;;33.83;;
18822;SDS011;9540;51.550;7.980;2023-05-10T08:32:34;82.13;;;35.40;;
18822;SDS011;9540;51.550;7.980;2023-05-10T08:35:03;70.65;;;33.45;;
18822;SDS011;9540;51.550;7.980;2023-05-10T08:37:32;70.22;;;34.03;;
18822;SDS011;9540;51.550;7.980;2023-05-10T08:39:59;76.95;;;34.72;;
18822;SDS011;9540;51.550;7.980;2023-05-10T08:42:26;67.28;;;31.40;;
18822;SDS011;9540;51.550;7.980;2023-05-10T08:44:57;76.60;;;33.03;;
18822;SDS011;9540;51.550;7.980;2023-05-10T08:47:25;63.15;;;30.83;;
18822;SDS011;9540;51.550;7.980;2023-05-10T08:49:52;51.85;;;26.50;;
18822;SDS011;9540;51.550;7.980;2023-05-10T08:52:21;51.70;;;26.75;;
18822;SDS011;9540;51.550;7.980;2023-05-10T08:54:53;54.33;;;27.65;;
18822;SDS011;9540;51.550;7.980;2023-05-10T08:57:21;57.13;;;28.23;;
18822;SDS011;9540;51.550;7.980;2023-05-10T08:59:48;48.90;;;26.33;;
18822;SDS011;9540;51.550;7.980;2023-05-10T09:02:15;42.72;;;23.50;;
18822;SDS011;9540;51.550;7.980;2023-05-10T09:04:44;43.75;;;22.50;;
18822;SDS011;9540;51.550;7.980;2023-05-10T09:07:11;37.13;;;21.63;;
18822;SDS011;9540;51.550;7.980;2023-05-10T09:09:38;34.08;;;20.83;;
18822;SDS011;9540;51.550;7.980;2023-05-10T09:12:07;28.45;;;18.50;;
18822;SDS011;9540;51.550;7.980;2023-05-10T09:14:36;28.58;;;17.52;;
18822;SDS011;9540;51.550;7.980;2023-05-10T09:17:04;27.33;;;17.30;;
18822;SDS011;9540;51.550;7.980;2023-05-10T09:19:32;30.42;;;17.35;;
18822;SDS011;9540;51.550;7.980;2023-05-10T09:21:59;32.78;;;18.67;;
18822;SDS011;9540;51.550;7.980;2023-05-10T09:24:28;29.58;;;18.08;;
18822;SDS011;9540;51.550;7.980;2023-05-10T09:26:56;28.20;;;17.25;;
18822;SDS011;9540;51.550;7.980;2023-05-10T09:29:25;29.42;;;16.55;;
18822;SDS011;9540;51.550;7.980;2023-05-10T09:31:52;32.60;;;18.08;;
18822;SDS011;9540;51.550;7.980;2023-05-10T09:34:22;34.42;;;19.23;;
18822;SDS011;9540;51.550;7.980;2023-05-10T09:36:56;30.77;;;18.10;;
18822;SDS011;9540;51.550;7.980;2023-05-10T09:39:32;35.42;;;16.42;;
18822;SDS011;9540;51.550;7.980;2023-05-10T09:41:59;29.45;;;15.43;;
18822;SDS011;9540;51.550;7.980;2023-05-10T09:44:30;30.08;;;16.77;;
18822;SDS011;9540;51.550;7.980;2023-05-10T09:46:58;35.45;;;17.33;;
18822;SDS011;9540;51.550;7.980;2023-05-10T09:49:25;33.08;;;18.08;;
18822;SDS011;9540;51.550;7.980;2023-05-10T09:52:02;28.67;;;17.52;;
18822;SDS011;9540;51.550;7.980;2023-05-10T09:54:30;30.55;;;17.30;;
18822;SDS011;9540;51.550;7.980;2023-05-10T09:56:58;30.73;;;17.13;;
18822;SDS011;9540;51.550;7.980;2023-05-10T09:59:26;30.60;;;15.55;;
18822;SDS011;9540;51.550;7.980;2023-05-10T10:01:56;35.35;;;18.60;;
18822;SDS011;9540;51.550;7.980;2023-05-10T10:04:25;24.45;;;14.68;;
18822;SDS011;9540;51.550;7.980;2023-05-10T10:06:59;26.10;;;14.32;;
18822;SDS011;9540;51.550;7.980;2023-05-10T10:09:27;24.10;;;12.43;;
18822;SDS011;9540;51.550;7.980;2023-05-10T10:11:55;22.35;;;13.38;;
18822;SDS011;9540;51.550;7.980;2023-05-10T10:14:22;19.63;;;12.18;;
18822;SDS011;9540;51.550;7.980;2023-05-10T10:16:50;17.95;;;10.48;;
18822;SDS011;9540;51.550;7.980;2023-05-10T10:19:19;27.02;;;13.18;;
18822;SDS011;9540;51.550;7.980;2023-05-10T10:21:46;18.17;;;11.07;;
18822;SDS011;9540;51.550;7.980;2023-05-10T10:24:14;20.25;;;11.75;;
18822;SDS011;9540;51.550;7.980;2023-05-10T10:26:41;21.15;;;12.65;;
18822;SDS011;9540;51.550;7.980;2023-05-10T10:29:12;22.13;;;12.63;;
18822;SDS011;9540;51.550;7.980;2023-05-10T10:31:48;17.80;;;11.95;;
18822;SDS011;9540;51.550;7.980;2023-05-10T10:34:25;19.45;;;11.20;;
18822;SDS011;9540;51.550;7.980;2023-05-10T10:36:54;21.75;;;10.70;;
18822;SDS011;9540;51.550;7.980;2023-05-10T10:39:22;24.00;;;12.10;;
18822;SDS011;9540;51.550;7.980;2023-05-10T10:41:51;20.30;;;11.70;;
18822;SDS011;9540;51.550;7.980;2023-05-10T10:44:33;22.25;;;12.43;;
18822;SDS011;9540;51.550;7.980;2023-05-10T10:47:05;26.30;;;14.65;;
18822;SDS011;9540;51.550;7.980;2023-05-10T10:50:01;22.20;;;14.10;;
18822;SDS011;9540;51.550;7.980;2023-05-10T10:52:33;28.02;;;14.60;;
18822;SDS011;9540;51.550;7.980;2023-05-10T10:55:02;21.63;;;12.27;;
18822;SDS011;9540;51.550;7.980;2023-05-10T10:57:31;23.90;;;13.40;;
18822;SDS011;9540;51.550;7.980;2023-05-10T11:00:17;29.48;;;13.43;;
18822;SDS011;9540;51.550;7.980;2023-05-10T11:02:46;26.15;;;14.45;;
18822;SDS011;9540;51.550;7.980;2023-05-10T11:05:25;25.60;;;14.70;;
18822;SDS011;9540;51.550;7.980;2023-05-10T11:08:08;27.70;;;13.80;;
18822;SDS011;9540;51.550;7.980;2023-05-10T11:10:37;26.88;;;14.27;;
18822;SDS011;9540;51.550;7.980;2023-05-10T11:13:05;23.50;;;12.60;;
18822;SDS011;9540;51.550;7.980;2023-05-10T11:15:34;25.77;;;13.10;;
18822;SDS011;9540;51.550;7.980;2023-05-10T11:18:16;18.05;;;11.70;;
18822;SDS011;9540;51.550;7.980;2023-05-10T11:20:46;23.63;;;13.25;;
18822;SDS011;9540;51.550;7.980;2023-05-10T11:23:17;21.17;;;13.45;;
18822;SDS011;9540;51.550;7.980;2023-05-10T11:25:45;22.35;;;12.52;;
18822;SDS011;9540;51.550;7.980;2023-05-10T11:28:12;22.25;;;13.32;;
18822;SDS011;9540;51.550;7.980;2023-05-10T11:30:40;18.95;;;12.80;;
18822;SDS011;9540;51.550;7.980;2023-05-10T11:33:08;20.58;;;12.10;;
18822;SDS011;9540;51.550;7.980;2023-05-10T11:35:39;19.25;;;12.32;;
18822;SDS011;9540;51.550;7.980;2023-05-10T11:38:08;19.25;;;11.77;;
18822;SDS011;9540;51.550;7.980;2023-05-10T11:40:37;22.25;;;12.27;;
18822;SDS011;9540;51.550;7.980;2023-05-10T11:43:05;16.48;;;10.40;;
18822;SDS011;9540;51.550;7.980;2023-05-10T11:45:32;14.27;;;9.27;;
18822;SDS011;9540;51.550;7.980;2023-05-10T11:48:00;15.00;;;8.93;;
18822;SDS011;9540;51.550;7.980;2023-05-10T11:50:28;14.30;;;9.23;;
18822;SDS011;9540;51.550;7.980;2023-05-10T11:52:56;16.42;;;10.20;;
18822;SDS011;9540;51.550;7.980;2023-05-10T11:55:25;16.85;;;10.38;;
18822;SDS011;9540;51.550;7.980;2023-05-10T11:57:52;16.48;;;10.13;;
18822;SDS011;9540;51.550;7.980;2023-05-10T12:00:20;16.55;;;10.65;;
18822;SDS011;9540;51.550;7.980;2023-05-10T12:02:47;15.25;;;9.57;;
18822;SDS011;9540;51.550;7.980;2023-05-10T12:05:15;13.43;;;8.07;;
18822;SDS011;9540;51.550;7.980;2023-05-10T12:07:42;11.07;;;7.80;;
18822;SDS011;9540;51.550;7.980;2023-05-10T12:10:10;13.88;;;8.32;;
18822;SDS011;9540;51.550;7.980;2023-05-10T12:15:12;15.70;;;7.63;;
18822;SDS011;9540;51.550;7.980;2023-05-10T12:17:45;14.20;;;8.38;;
18822;SDS011;9540;51.550;7.980;2023-05-10T12:20:15;13.48;;;8.45;;
18822;SDS011;9540;51.550;7.980;2023-05-10T12:22:44;17.92;;;9.77;;
18822;SDS011;9540;51.550;7.980;2023-05-10T12:25:12;20.15;;;10.90;;
18822;SDS011;9540;51.550;7.980;2023-05-10T12:27:39;20.50;;;11.80;;
18822;SDS011;9540;51.550;7.980;2023-05-10T12:30:08;27.52;;;12.13;;
18822;SDS011;9540;51.550;7.980;2023-05-10T12:32:39;25.88;;;13.43;;
18822;SDS011;9540;51.550;7.980;2023-05-10T12:35:07;23.85;;;13.32;;
18822;SDS011;9540;51.550;7.980;2023-05-10T12:37:35;27.05;;;14.45;;
18822;SDS011;9540;51.550;7.980;2023-05-10T12:40:08;34.45;;;15.70;;
18822;SDS011;9540;51.550;7.980;2023-05-10T12:42:36;27.35;;;14.13;;
18822;SDS011;9540;51.550;7.980;2023-05-10T12:45:08;25.27;;;13.98;;
18822;SDS011;9540;51.550;7.980;2023-05-10T12:47:35;25.77;;;15.00;;
18822;SDS011;9540;51.550;7.980;2023-05-10T12:50:03;22.20;;;12.60;;
18822;SDS011;9540;51.550;7.980;2023-05-10T12:52:31;23.20;;;12.82;;
18822;SDS011;9540;51.550;7.980;2023-05-10T12:54:58;24.20;;;12.20;;
18822;SDS011;9540;51.550;7.980;2023-05-10T12:57:28;22.40;;;12.10;;
18822;SDS011;9540;51.550;7.980;2023-05-10T12:59:56;15.32;;;8.85;;
18822;SDS011;9540;51.550;7.980;2023-05-10T13:02:24;15.70;;;9.40;;
18822;SDS011;9540;51.550;7.980;2023-05-10T13:04:52;14.55;;;8.43;;
18822;SDS011;9540;51.550;7.980;2023-05-10T13:07:19;15.70;;;8.73;;
18822;SDS011;9540;51.550;7.980;2023-05-10T13:09:46;13.77;;;8.98;;
18822;SDS011;9540;51.550;7.980;2023-05-10T13:12:13;16.95;;;8.77;;
18822;SDS011;9540;51.550;7.980;2023-05-10T13:14:41;19.67;;;8.05;;
18822;SDS011;9540;51.550;7.980;2023-05-10T13:17:08;13.13;;;8.85;;
18822;SDS011;9540;51.550;7.980;2023-05-10T13:19:36;13.52;;;8.10;;
18822;SDS011;9540;51.550;7.980;2023-05-10T13:22:03;15.18;;;9.52;;
18822;SDS011;9540;51.550;7.980;2023-05-10T13:24:31;17.52;;;10.43;;
18822;SDS011;9540;51.550;7.980;2023-05-10T13:26:58;18.40;;;10.80;;
18822;SDS011;9540;51.550;7.980;2023-05-10T13:29:25;18.67;;;11.15;;
18822;SDS011;9540;51.550;7.980;2023-05-10T13:31:53;19.77;;;11.43;;
18822;SDS011;9540;51.550;7.980;2023-05-10T13:34:20;18.08;;;10.55;;
18822;SDS011;9540;51.550;7.980;2023-05-10T13:36:48;14.68;;;10.63;;
18822;SDS011;9540;51.550;7.980;2023-05-10T13:39:15;18.52;;;11.30;;
18822;SDS011;9540;51.550;7.980;2023-05-10T13:41:43;13.32;;;10.52;;
18822;SDS011;9540;51.550;7.980;2023-05-10T13:44:11;11.95;;;8.77;;
18822;SDS011;9540;51.550;7.980;2023-05-10T13:46:39;11.95;;;8.68;;
18822;SDS011;9540;51.550;7.980;2023-05-10T13:49:08;13.63;;;10.10;;
18822;SDS011;9540;51.550;7.980;2023-05-10T13:51:35;13.05;;;10.05;;
18822;SDS011;9540;51.550;7.980;2023-05-10T13:54:04;15.57;;;9.02;;
18822;SDS011;9540;51.550;7.980;2023-05-10T13:56:31;17.30;;;9.45;;
18822;SDS011;9540;51.550;7.980;2023-05-10T13:58:59;12.52;;;9.07;;
18822;SDS011;9540;51.550;7.980;2023-05-10T14:01:26;13.25;;;9.38;;
18822;SDS011;9540;51.550;7.980;2023-05-10T14:03:53;16.08;;;8.65;;
18822;SDS011;9540;51.550;7.980;2023-05-10T14:06:20;16.02;;;9.93;;
18822;SDS011;9540;51.550;7.980;2023-05-10T14:08:47;12.00;;;8.23;;
18822;SDS011;9540;51.550;7.980;2023-05-10T14:11:16;15.48;;;8.43;;
18822;SDS011;9540;51.550;7.980;2023-05-10T14:13:43;14.18;;;8.48;;
18822;SDS011;9540;51.550;7.980;2023-05-10T14:16:10;13.68;;;8.70;;
18822;SDS011;9540;51.550;7.980;2023-05-10T14:18:39;11.80;;;8.07;;
18822;SDS011;9540;51.550;7.980;2023-05-10T14:21:06;12.07;;;7.65;;
18822;SDS011;9540;51.550;7.980;2023-05-10T14:23:33;15.88;;;7.70;;
18822;SDS011;9540;51.550;7.980;2023-05-10T14:26:00;11.50;;;7.40;;
18822;SDS011;9540;51.550;7.980;2023-05-10T14:28:29;16.33;;;8.02;;
18822;SDS011;9540;51.550;7.980;2023-05-10T14:30:56;13.23;;;8.45;;
18822;SDS011;9540;51.550;7.980;2023-05-10T14:33:24;11.80;;;8.85;;
18822;SDS011;9540;51.550;7.980;2023-05-10T14:35:51;14.65;;;8.80;;
18822;SDS011;9540;51.550;7.980;2023-05-10T14:38:18;11.80;;;8.13;;
18822;SDS011;9540;51.550;7.980;2023-05-10T14:40:45;13.88;;;9.70;;
18822;SDS011;9540;51.550;7.980;2023-05-10T14:43:12;12.93;;;8.55;;
18822;SDS011;9540;51.550;7.980;2023-05-10T14:45:41;13.05;;;8.60;;
18822;SDS011;9540;51.550;7.980;2023-05-10T14:48:08;15.98;;;8.88;;
18822;SDS011;9540;51.550;7.980;2023-05-10T14:50:40;15.40;;;8.07;;
18822;SDS011;9540;51.550;7.980;2023-05-10T14:53:07;14.15;;;8.70;;
18822;SDS011;9540;51.550;7.980;2023-05-10T14:55:34;12.10;;;8.60;;
18822;SDS011;9540;51.550;7.980;2023-05-10T14:58:02;12.98;;;7.50;;